Time;durP1;ratioP1;P1;durP2;ratioP2;P2;SDS_P1;SDS_P2;PMS_P1;PMS_P2;Temp;Humidity;BMP_temperature;BMP_pressure;BME280_temperature;BME280_humidity;BME280_pressure;Samples;Min_cycle;Max_cycle;Signal;HPM_P1;HPM_P2
2023/10/26 00:00:45;;;;;;;16.50;12.90;;;;;;;8.67;100.00;99483.73;109325;1253;72672;-64
2023/10/26 00:03:13;;;;;;;14.40;12.50;;;;;;;8.68;100.00;99470.41;109310;1253;60669;-64
2023/10/26 00:05:41;;;;;;;15.90;12.80;;;;;;;8.69;100.00;99466.02;109314;1253;60142;-64
2023/10/26 00:08:08;;;;;;;13.70;11.30;;;;;;;8.70;100.00;99459.94;109193;1254;73462;-64
2023/10/26 00:10:39;;;;;;;15.30;13.10;;;;;;;8.71;100.00;99459.63;109229;1253;67085;-64
2023/10/26 00:13:07;;;;;;;17.70;15.00;;;;;;;8.71;100.00;99448.88;109200;1254;73241;-64
2023/10/26 00:15:38;;;;;;;17.10;15.20;;;;;;;8.72;100.00;99440.66;109282;1253;60839;-63
2023/10/26 00:18:05;;;;;;;14.50;12.10;;;;;;;8.73;100.00;99441.89;109201;1253;60128;-63
2023/10/26 00:20:33;;;;;;;17.70;14.20;;;;;;;8.73;100.00;99437.02;109306;1254;74790;-63
2023/10/26 00:23:01;;;;;;;18.40;15.40;;;;;;;8.74;100.00;99437.61;109190;1254;66943;-63
2023/10/26 00:25:29;;;;;;;15.20;13.60;;;;;;;8.76;100.00;99431.67;109106;1254;287975;-62
2023/10/26 00:27:58;;;;;;;15.00;13.20;;;;;;;8.76;100.00;99423.33;109322;1252;61350;-62
2023/10/26 00:30:26;;;;;;;15.60;13.40;;;;;;;8.77;100.00;99422.82;109437;1253;59273;-62
2023/10/26 00:32:54;;;;;;;18.90;15.80;;;;;;;8.78;100.00;99412.83;109242;1255;73398;-63
2023/10/26 00:35:22;;;;;;;15.90;14.00;;;;;;;8.81;100.00;99411.80;109305;1253;67045;-62
2023/10/26 00:37:50;;;;;;;16.60;14.80;;;;;;;8.83;100.00;99411.73;109330;1253;71152;-62
2023/10/26 00:40:18;;;;;;;15.90;14.20;;;;;;;8.85;100.00;99412.86;109309;1255;60434;-62
2023/10/26 00:42:45;;;;;;;15.80;12.40;;;;;;;8.88;100.00;99404.36;109225;1253;60162;-63
2023/10/26 00:45:13;;;;;;;16.60;14.70;;;;;;;8.90;100.00;99404.44;109237;1255;74265;-62
2023/10/26 00:47:41;;;;;;;17.10;14.80;;;;;;;8.91;100.00;99399.22;109242;1251;66926;-62
2023/10/26 00:50:10;;;;;;;15.30;13.60;;;;;;;8.92;100.00;99391.34;109160;1254;72752;-62
2023/10/26 00:52:37;;;;;;;13.60;11.30;;;;;;;8.93;100.00;99386.23;109289;1253;60498;-62
2023/10/26 00:55:05;;;;;;;17.70;15.50;;;;;;;8.94;100.00;99381.33;109101;1258;60106;-62
2023/10/26 00:57:33;;;;;;;20.20;16.40;;;;;;;8.96;100.00;99383.16;109220;1255;74650;-61
2023/10/26 01:00:00;;;;;;;21.90;19.50;;;;;;;8.99;100.00;99379.58;109263;1253;66830;-61
2023/10/26 01:02:28;;;;;;;18.50;16.10;;;;;;;9.02;100.00;99372.06;109211;1256;72708;-62
2023/10/26 01:04:56;;;;;;;15.90;14.00;;;;;;;9.04;100.00;99372.83;109145;1254;61733;-61
2023/10/26 01:07:23;;;;;;;18.70;15.80;;;;;;;9.06;100.00;99372.69;109331;1254;60678;-61
2023/10/26 01:09:51;;;;;;;15.60;13.30;;;;;;;9.07;100.00;99360.17;109292;1253;73367;-61
2023/10/26 01:12:19;;;;;;;16.70;13.80;;;;;;;9.08;100.00;99354.48;109198;1254;65661;-61
2023/10/26 01:14:47;;;;;;;21.30;17.50;;;;;;;9.09;100.00;99351.77;109164;1253;72700;-61
2023/10/26 01:17:15;;;;;;;19.50;16.00;;;;;;;9.11;100.00;99347.18;109153;1258;61731;-61
2023/10/26 01:19:44;;;;;;;18.60;14.90;;;;;;;9.12;100.00;99344.42;109374;1253;60066;-60
2023/10/26 01:22:11;;;;;;;24.30;19.90;;;;;;;9.13;100.00;99342.88;109194;1254;74679;-61
2023/10/26 01:24:39;;;;;;;28.30;24.30;;;;;;;9.16;100.00;99349.34;109230;1259;66923;-61
2023/10/26 01:27:07;;;;;;;28.50;25.30;;;;;;;9.19;100.00;99352.45;109232;1254;71430;-61
2023/10/26 01:29:34;;;;;;;32.10;27.70;;;;;;;9.21;100.00;99353.13;109299;1253;60744;-71
2023/10/26 01:32:02;;;;;;;30.80;27.50;;;;;;;9.23;100.00;99343.16;109273;1254;60062;-70
2023/10/26 01:34:31;;;;;;;27.60;24.80;;;;;;;9.24;100.00;99342.54;109365;1253;74619;-68
2023/10/26 01:36:59;;;;;;;31.30;27.50;;;;;;;9.25;100.00;99341.06;109264;1254;66944;-68
2023/10/26 01:39:27;;;;;;;30.20;26.00;;;;;;;9.24;100.00;99332.66;109071;1254;73580;-68
2023/10/26 01:41:55;;;;;;;32.70;28.20;;;;;;;9.23;100.00;99331.16;109244;1254;60452;-68
2023/10/26 01:44:22;;;;;;;32.90;28.80;;;;;;;9.23;100.00;99329.69;109250;1253;59546;-68
2023/10/26 01:46:50;;;;;;;30.00;26.70;;;;;;;9.23;100.00;99327.41;109329;1256;74707;-68
2023/10/26 01:49:18;;;;;;;34.90;29.60;;;;;;;9.23;100.00;99327.77;109276;1254;67455;-67
2023/10/26 01:51:45;;;;;;;33.20;29.70;;;;;;;9.23;100.00;99320.81;109278;1253;71355;-68
2023/10/26 01:54:13;;;;;;;33.40;28.80;;;;;;;9.23;100.00;99314.85;109241;1254;60511;-68
2023/10/26 01:56:40;;;;;;;31.30;28.00;;;;;;;9.23;100.00;99315.52;109193;1254;60148;-67
2023/10/26 01:59:08;;;;;;;34.80;29.90;;;;;;;9.23;100.00;99320.61;109304;1253;74775;-65
2023/10/26 02:01:36;;;;;;;31.00;27.70;;;;;;;9.25;100.00;99320.63;109281;1254;65271;-66
2023/10/26 02:04:04;;;;;;;33.50;30.00;;;;;;;9.26;100.00;99324.38;109125;1254;70474;-66
2023/10/26 02:06:31;;;;;;;33.80;29.40;;;;;;;9.30;100.00;99322.46;109095;1253;61715;-66
2023/10/26 02:08:59;;;;;;;30.60;27.50;;;;;;;9.32;100.00;99318.52;109311;1254;60015;-66
2023/10/26 02:11:27;;;;;;;31.80;28.50;;;;;;;9.34;100.00;99312.66;109235;1254;75222;-65
2023/10/26 02:13:54;;;;;;;32.30;28.90;;;;;;;9.34;100.00;99302.27;109349;1254;66837;-66
2023/10/26 02:16:22;;;;;;;31.50;28.00;;;;;;;9.35;100.00;99301.95;109211;1253;71513;-65
2023/10/26 02:18:50;;;;;;;32.10;28.60;;;;;;;9.36;100.00;99297.75;109312;1253;61675;-65
2023/10/26 02:21:17;;;;;;;37.20;31.30;;;;;;;9.35;100.00;99295.86;109294;1252;60195;-64
2023/10/26 02:23:45;;;;;;;37.20;33.20;;;;;;;9.36;100.00;99291.99;109188;1254;73757;-65
2023/10/26 02:26:13;;;;;;;34.70;30.50;;;;;;;9.38;100.00;99291.75;109202;1253;66846;-65
2023/10/26 02:28:40;;;;;;;39.00;33.50;;;;;;;9.39;100.00;99280.73;109149;1254;72779;-65
2023/10/26 02:31:08;;;;;;;35.10;31.30;;;;;;;9.41;100.00;99280.95;109217;1254;60399;-65
2023/10/26 02:33:36;;;;;;;37.40;33.40;;;;;;;9.41;100.00;99283.95;109146;1254;59332;-64
2023/10/26 02:36:06;;;;;;;38.00;34.00;;;;;;;9.43;100.00;99292.04;109314;1253;75940;-64
2023/10/26 02:38:34;;;;;;;35.90;30.70;;;;;;;9.46;100.00;99296.72;109177;1254;66938;-65
2023/10/26 02:41:03;;;;;;;37.10;32.30;;;;;;;9.50;100.00;99302.05;109303;1254;73193;-64
2023/10/26 02:43:31;;;;;;;35.00;31.10;;;;;;;9.55;100.00;99299.60;109349;1254;60407;-63
2023/10/26 02:46:04;;;;;;;35.20;31.30;;;;;;;9.58;100.00;99298.13;109428;1254;60027;-64
2023/10/26 02:48:33;;;;;;;33.20;29.60;;;;;;;9.62;100.00;99292.02;109479;1252;74808;-65
2023/10/26 02:51:01;;;;;;;41.90;32.30;;;;;;;9.66;100.00;99285.80;109455;1254;66934;-65
2023/10/26 02:53:29;;;;;;;33.10;29.50;;;;;;;9.68;100.00;99284.48;109335;1254;71444;-65
2023/10/26 02:55:57;;;;;;;34.10;29.80;;;;;;;9.71;100.00;99279.91;109298;1252;62464;-64
2023/10/26 02:58:24;;;;;;;36.60;30.20;;;;;;;9.75;100.00;99279.10;109233;1254;60111;-64
2023/10/26 03:00:55;;;;;;;35.00;31.40;;;;;;;9.78;100.00;99281.41;109294;1253;73458;-65
2023/10/26 03:03:23;;;;;;;35.70;31.80;;;;;;;9.81;100.00;99284.71;109237;1254;67228;-65
2023/10/26 03:05:51;;;;;;;37.40;32.80;;;;;;;9.84;100.00;99285.69;109207;1254;73237;-64
2023/10/26 03:08:19;;;;;;;41.80;33.10;;;;;;;9.86;100.00;99279.02;109238;1253;60376;-65
2023/10/26 03:10:47;;;;;;;39.60;35.60;;;;;;;9.88;100.00;99275.24;109282;1253;59077;-65
2023/10/26 03:13:14;;;;;;;38.80;34.20;;;;;;;9.91;100.00;99270.92;109282;1254;73874;-65
2023/10/26 03:15:42;;;;;;;37.40;32.70;;;;;;;9.92;100.00;99268.84;109250;1254;65648;-64
2023/10/26 03:18:10;;;;;;;37.20;31.30;;;;;;;9.93;100.00;99265.67;109287;1254;72734;-64
2023/10/26 03:20:39;;;;;;;40.70;32.70;;;;;;;9.93;100.00;99265.04;109302;1253;60887;-64
2023/10/26 03:23:06;;;;;;;37.80;32.30;;;;;;;9.92;100.00;99263.23;109297;1253;58995;-64
2023/10/26 03:25:34;;;;;;;42.60;33.50;;;;;;;9.92;100.00;99258.73;109425;1252;74733;-64
2023/10/26 03:28:01;;;;;;;38.50;32.60;;;;;;;9.92;100.00;99258.70;109440;1252;66128;-64
2023/10/26 03:30:29;;;;;;;37.00;32.00;;;;;;;9.91;100.00;99249.69;109424;1254;71460;-64
2023/10/26 03:32:56;;;;;;;40.20;34.50;;;;;;;9.91;100.00;99252.65;109458;1253;61762;-63
2023/10/26 03:35:24;;;;;;;37.80;32.60;;;;;;;9.91;100.00;99253.45;109499;1254;58915;-64
2023/10/26 03:37:52;;;;;;;37.90;33.10;;;;;;;9.93;100.00;99252.09;109384;1254;74738;-63
2023/10/26 03:40:19;;;;;;;37.70;33.50;;;;;;;9.94;100.00;99250.89;109370;1251;66949;-64
2023/10/26 03:42:47;;;;;;;40.90;34.00;;;;;;;9.95;100.00;99243.56;109479;1254;72656;-64
2023/10/26 03:45:15;;;;;;;37.90;33.50;;;;;;;9.97;100.00;99244.67;109447;1253;61081;-64
2023/10/26 03:47:43;;;;;;;39.70;35.10;;;;;;;10.01;100.00;99251.23;109369;1253;59047;-64
2023/10/26 03:50:11;;;;;;;53.10;42.00;;;;;;;10.01;100.00;99247.32;109366;1252;73390;-63
2023/10/26 03:52:38;;;;;;;44.30;39.20;;;;;;;10.03;100.00;99247.06;109423;1253;65705;-64
2023/10/26 03:55:06;;;;;;;41.90;35.80;;;;;;;10.05;100.00;99242.51;109415;1252;71456;-64
2023/10/26 03:57:34;;;;;;;40.90;35.10;;;;;;;10.06;100.00;99240.05;109381;1253;60422;-64
2023/10/26 04:00:03;;;;;;;41.00;35.60;;;;;;;10.07;100.00;99241.04;109226;1254;59010;-63
2023/10/26 04:02:38;;;;;;;42.30;35.70;;;;;;;10.07;100.00;99232.20;109411;1253;73725;-63
2023/10/26 04:05:06;;;;;;;44.50;37.60;;;;;;;10.08;100.00;99225.43;109365;1254;65497;-64
2023/10/26 04:07:34;;;;;;;45.30;37.60;;;;;;;10.09;100.00;99223.07;109460;1253;71418;-63
2023/10/26 04:10:05;;;;;;;40.30;34.60;;;;;;;10.13;100.00;99227.37;109437;1254;60351;-63
2023/10/26 04:12:33;;;;;;;43.70;37.60;;;;;;;10.14;100.00;99228.69;109498;1252;60196;-63
2023/10/26 04:15:02;;;;;;;39.70;34.10;;;;;;;10.15;100.00;99220.02;109416;1251;73801;-63
2023/10/26 04:17:30;;;;;;;50.00;40.00;;;;;;;10.16;100.00;99214.59;109471;1251;67264;-63
2023/10/26 04:19:58;;;;;;;45.50;38.80;;;;;;;10.17;100.00;99219.52;109456;1253;72785;-63
2023/10/26 04:22:26;;;;;;;47.70;38.70;;;;;;;10.19;100.00;99225.14;109483;1251;61715;-63
2023/10/26 04:24:53;;;;;;;42.70;36.30;;;;;;;10.21;100.00;99230.64;109496;1253;60183;-63
2023/10/26 04:27:21;;;;;;;47.10;37.90;;;;;;;10.23;100.00;99233.79;109502;1251;74725;-63
2023/10/26 04:29:48;;;;;;;47.20;39.40;;;;;;;10.23;100.00;99232.88;109444;1253;67307;-63
2023/10/26 04:32:16;;;;;;;45.30;39.30;;;;;;;10.25;100.00;99237.16;109481;1251;72718;-63
2023/10/26 04:34:44;;;;;;;45.90;37.40;;;;;;;10.27;100.00;99240.99;109471;1252;60804;-63
2023/10/26 04:37:12;;;;;;;48.40;39.10;;;;;;;10.28;100.00;99242.02;109461;1251;60139;-63
2023/10/26 04:39:43;;;;;;;44.70;36.30;;;;;;;10.29;100.00;99238.09;109479;1251;74636;-63
2023/10/26 04:42:12;;;;;;;52.60;43.70;;;;;;;10.29;100.00;99240.80;109505;1251;65658;-62
2023/10/26 04:44:40;;;;;;;45.10;37.70;;;;;;;10.29;100.00;99243.66;109481;1251;71417;-62
2023/10/26 04:47:09;;;;;;;51.10;41.10;;;;;;;10.29;100.00;99243.25;109496;1253;61715;-62
2023/10/26 04:49:37;;;;;;;53.60;44.20;;;;;;;10.31;100.00;99244.45;109325;1253;59496;-62
2023/10/26 04:52:05;;;;;;;52.50;41.10;;;;;;;10.35;100.00;99247.69;109283;1253;74736;-62
2023/10/26 04:54:32;;;;;;;52.50;42.60;;;;;;;10.35;100.00;99247.54;109371;1253;65785;-62
2023/10/26 04:57:00;;;;;;;56.20;44.90;;;;;;;10.34;100.00;99240.64;109330;1253;71463;-61
2023/10/26 04:59:28;;;;;;;53.10;41.70;;;;;;;10.37;100.00;99241.90;109335;1253;61738;-62
2023/10/26 05:01:55;;;;;;;56.70;41.50;;;;;;;10.39;100.00;99253.09;109381;1253;59069;-61
2023/10/26 05:04:23;;;;;;;54.10;42.30;;;;;;;10.40;100.00;99256.36;109486;1251;73387;-61
2023/10/26 05:06:51;;;;;;;59.80;44.60;;;;;;;10.42;100.00;99253.67;109452;1251;65756;-61
2023/10/26 05:09:18;;;;;;;49.10;42.60;;;;;;;10.45;100.00;99250.09;109393;1253;71429;-60
2023/10/26 05:11:46;;;;;;;49.60;40.30;;;;;;;10.46;100.00;99256.19;109252;1254;62231;-61
2023/10/26 05:14:14;;;;;;;55.00;44.20;;;;;;;10.49;100.00;99262.79;109404;1252;59991;-61
2023/10/26 05:16:41;;;;;;;54.30;42.60;;;;;;;10.50;100.00;99262.38;109368;1253;74711;-60
2023/10/26 05:19:09;;;;;;;54.30;44.90;;;;;;;10.51;100.00;99267.47;109257;1254;65674;-63
2023/10/26 05:21:36;;;;;;;54.60;40.60;;;;;;;10.52;100.00;99270.47;109253;1253;72700;-61
2023/10/26 05:24:04;;;;;;;59.30;44.50;;;;;;;10.53;100.00;99264.05;109269;1253;61265;-60
2023/10/26 05:26:32;;;;;;;55.30;42.80;;;;;;;10.54;100.00;99255.55;109294;1253;60093;-60
2023/10/26 05:29:02;;;;;;;65.60;46.40;;;;;;;10.56;100.00;99258.34;109274;1252;74900;-61
2023/10/26 05:31:30;;;;;;;63.80;47.30;;;;;;;10.59;100.00;99257.45;109222;1253;67759;-60
2023/10/26 05:33:57;;;;;;;65.50;47.80;;;;;;;10.63;100.00;99260.45;109285;1253;72718;-60
2023/10/26 05:36:25;;;;;;;71.70;53.30;;;;;;;10.65;100.00;99256.26;109234;1254;62502;-61
2023/10/26 05:38:53;;;;;;;65.30;46.50;;;;;;;10.69;100.00;99252.95;109306;1253;58957;-60
2023/10/26 05:41:20;;;;;;;63.10;46.90;;;;;;;10.73;100.00;99259.02;109328;1253;74714;-62
2023/10/26 05:43:48;;;;;;;66.10;47.50;;;;;;;10.77;100.00;99264.02;109310;1253;65843;-60
2023/10/26 05:46:15;;;;;;;62.10;47.70;;;;;;;10.82;100.00;99264.80;109281;1253;73125;-61
2023/10/26 05:48:43;;;;;;;63.50;47.60;;;;;;;10.85;100.00;99267.73;109265;1252;60310;-60
2023/10/26 05:51:11;;;;;;;67.80;51.20;;;;;;;10.87;100.00;99263.97;109235;1253;58986;-61
2023/10/26 05:53:38;;;;;;;74.10;54.20;;;;;;;10.86;100.00;99263.48;109280;1253;74738;-60
2023/10/26 05:56:07;;;;;;;72.40;51.20;;;;;;;10.88;100.00;99266.17;109267;1253;66971;-60
2023/10/26 05:58:34;;;;;;;67.80;51.80;;;;;;;10.93;100.00;99271.27;109277;1253;72637;-60
2023/10/26 06:01:02;;;;;;;75.00;50.50;;;;;;;10.97;100.00;99275.75;109208;1254;60876;-60
2023/10/26 06:03:30;;;;;;;73.20;53.50;;;;;;;11.00;100.00;99273.70;109266;1253;59002;-60
2023/10/26 06:05:59;;;;;;;74.50;52.30;;;;;;;11.01;100.00;99270.83;109256;1253;73405;-60
2023/10/26 06:08:27;;;;;;;92.20;60.60;;;;;;;11.03;100.00;99263.13;109324;1253;65720;-60
2023/10/26 06:10:55;;;;;;;80.40;56.60;;;;;;;11.06;100.00;99259.92;109270;1254;73011;-61
2023/10/26 06:13:22;;;;;;;77.90;55.00;;;;;;;11.12;100.00;99265.83;109279;1254;61027;-60
2023/10/26 06:15:50;;;;;;;74.40;51.80;;;;;;;11.19;100.00;99272.36;109353;1253;59003;-60
2023/10/26 06:18:18;;;;;;;62.70;48.60;;;;;;;11.24;100.00;99270.85;109241;1253;74568;-60
2023/10/26 06:21:01;;;;;;;67.30;51.20;;;;;;;11.29;100.00;99270.58;109279;1253;67913;-60
2023/10/26 06:23:29;;;;;;;77.20;52.60;;;;;;;11.32;100.00;99273.72;109280;1253;72870;-60
2023/10/26 06:25:58;;;;;;;79.60;54.10;;;;;;;11.35;100.00;99271.77;109251;1253;59686;-60
2023/10/26 06:28:26;;;;;;;79.60;58.10;;;;;;;11.39;100.00;99269.86;109284;1253;59287;-60
2023/10/26 06:30:58;;;;;;;85.80;63.00;;;;;;;11.42;100.00;99276.53;109235;1253;75153;-61
2023/10/26 06:33:26;;;;;;;82.30;54.80;;;;;;;11.44;100.00;99271.82;109047;1253;66853;-60
2023/10/26 06:35:53;;;;;;;84.70;56.30;;;;;;;11.46;100.00;99262.26;109263;1253;72355;-60
2023/10/26 06:38:21;;;;;;;71.60;52.90;;;;;;;11.47;100.00;99260.44;109280;1253;61778;-60
2023/10/26 06:40:48;;;;;;;78.50;52.80;;;;;;;11.49;100.00;99260.59;109170;1253;61734;-61
2023/10/26 06:43:16;;;;;;;71.30;49.30;;;;;;;11.52;100.00;99262.61;109273;1253;74770;-60
2023/10/26 06:45:43;;;;;;;88.60;60.40;;;;;;;11.52;100.00;99265.27;109248;1253;65642;-59
2023/10/26 06:48:11;;;;;;;82.40;57.30;;;;;;;11.51;100.00;99272.38;109461;1251;71730;-59
2023/10/26 06:50:41;;;;;;;80.10;51.80;;;;;;;11.52;100.00;99264.73;109433;1251;61735;-60
2023/10/26 06:53:08;;;;;;;77.40;53.00;;;;;;;11.54;100.00;99262.52;109339;1253;59532;-59
2023/10/26 06:55:37;;;;;;;66.60;48.20;;;;;;;11.59;100.00;99263.88;109310;1253;73748;-60
2023/10/26 06:58:05;;;;;;;74.50;52.90;;;;;;;11.63;100.00;99254.13;109412;1253;66079;-60
2023/10/26 07:00:34;;;;;;;71.80;51.60;;;;;;;11.63;100.00;99244.54;109314;1253;72711;-60
2023/10/26 07:03:02;;;;;;;73.80;53.30;;;;;;;11.65;100.00;99242.50;109233;1253;61078;-59
2023/10/26 07:05:31;;;;;;;78.10;54.70;;;;;;;11.70;100.00;99249.70;109344;1252;58893;-59
2023/10/26 07:07:59;;;;;;;76.00;51.00;;;;;;;11.76;100.00;99254.20;109281;1253;74653;-59
2023/10/26 07:10:27;;;;;;;74.30;54.30;;;;;;;11.80;100.00;99254.89;109354;1252;67088;-59
2023/10/26 07:12:55;;;;;;;84.70;52.70;;;;;;;11.84;100.00;99257.04;109311;1252;72780;-59
2023/10/26 07:15:22;;;;;;;79.30;57.00;;;;;;;11.94;100.00;99259.77;109390;1251;61416;-59
2023/10/26 07:17:50;;;;;;;84.00;53.00;;;;;;;12.02;100.00;99263.99;109453;1251;58942;-59
2023/10/26 07:20:18;;;;;;;77.00;55.50;;;;;;;12.09;100.00;99276.59;109491;1251;74672;-59
2023/10/26 07:22:45;;;;;;;71.00;53.50;;;;;;;12.14;100.00;99284.97;109408;1253;66096;-59
2023/10/26 07:25:13;;;;;;;77.40;51.80;;;;;;;12.19;100.00;99282.48;109364;1253;72657;-58
2023/10/26 07:27:40;;;;;;;76.20;53.00;;;;;;;12.23;100.00;99283.88;109246;1253;62151;-59
2023/10/26 07:30:09;;;;;;;62.50;49.20;;;;;;;12.26;100.00;99280.67;109297;1252;59872;-59
2023/10/26 07:32:37;;;;;;;76.40;54.90;;;;;;;12.29;100.00;99276.53;109359;1252;73710;-58
2023/10/26 07:35:04;;;;;;;84.00;53.80;;;;;;;12.32;100.00;99277.02;109340;1252;65675;-58
2023/10/26 07:37:32;;;;;;;63.30;50.30;;;;;;;12.32;100.00;99274.95;109304;1253;72261;-58
2023/10/26 07:40:00;;;;;;;67.50;51.00;;;;;;;12.34;100.00;99283.36;109240;1254;63856;-58
2023/10/26 07:42:47;;;;;;;77.80;52.10;;;;;;;12.33;100.00;99289.30;109291;1253;60578;-59
2023/10/26 07:45:15;;;;;;;71.20;51.90;;;;;;;12.32;100.00;99295.49;109310;1253;75761;-59
2023/10/26 07:47:43;;;;;;;68.20;47.70;;;;;;;12.32;100.00;99294.40;109435;1253;66777;-58
2023/10/26 07:50:11;;;;;;;63.20;43.80;;;;;;;12.35;100.00;99293.51;109249;1253;71154;-59
2023/10/26 07:52:39;;;;;;;71.70;50.00;;;;;;;12.36;100.00;99293.63;109274;1253;61508;-58
2023/10/26 07:55:08;;;;;;;70.40;47.10;;;;;;;12.38;100.00;99297.70;109388;1252;60615;-58
2023/10/26 07:57:36;;;;;;;70.70;48.80;;;;;;;12.43;100.00;99290.66;109295;1253;74714;-58
2023/10/26 08:00:04;;;;;;;68.10;45.90;;;;;;;12.47;100.00;99285.39;109246;1253;64685;-59
2023/10/26 08:02:39;;;;;;;67.40;49.10;;;;;;;12.47;100.00;99285.59;109246;1253;73666;-58
2023/10/26 08:05:08;;;;;;;72.20;49.30;;;;;;;12.44;100.00;99285.78;109312;1252;60489;-58
2023/10/26 08:07:37;;;;;;;71.60;51.20;;;;;;;12.45;100.00;99282.46;109279;1254;59466;-59
2023/10/26 08:10:06;;;;;;;71.40;49.30;;;;;;;12.48;100.00;99282.85;109159;1254;74684;-59
2023/10/26 08:12:33;;;;;;;72.20;51.90;;;;;;;12.49;100.00;99272.12;109319;1254;69158;-58
2023/10/26 08:15:02;;;;;;;67.40;48.10;;;;;;;12.51;100.00;99272.23;109239;1254;72463;-59
2023/10/26 08:17:49;;;;;;;68.30;49.20;;;;;;;12.52;100.00;99278.11;109242;1254;62651;-59
2023/10/26 08:20:17;;;;;;;72.80;50.00;;;;;;;12.53;100.00;99278.02;109284;1252;61743;-58
2023/10/26 08:22:45;;;;;;;73.50;51.30;;;;;;;12.54;100.00;99287.27;109270;1254;72575;-59
2023/10/26 08:25:13;;;;;;;64.70;48.50;;;;;;;12.57;100.00;99300.26;109247;1253;68753;-58
2023/10/26 08:27:47;;;;;;;64.60;48.30;;;;;;;12.58;100.00;99297.04;109202;1253;71211;-58
2023/10/26 08:30:15;;;;;;;66.10;49.10;;;;;;;12.58;100.00;99286.54;109353;1252;62801;-58
2023/10/26 08:32:43;;;;;;;68.80;51.40;;;;;;;12.59;100.00;99289.30;109341;1252;58942;-58
2023/10/26 08:35:11;;;;;;;67.90;50.90;;;;;;;12.59;100.00;99287.68;109361;1252;74629;-58
2023/10/26 08:37:39;;;;;;;70.30;52.30;;;;;;;12.62;100.00;99284.45;109321;1253;68903;-59
2023/10/26 08:40:13;;;;;;;66.00;50.00;;;;;;;12.65;100.00;99285.16;109305;1254;72735;-58
2023/10/26 08:42:43;;;;;;;63.60;49.00;;;;;;;12.68;100.00;99283.48;109268;1253;61827;-58
2023/10/26 08:45:12;;;;;;;74.60;53.00;;;;;;;12.74;100.00;99289.11;109350;1252;60090;-58
2023/10/26 08:47:41;;;;;;;72.90;49.70;;;;;;;12.77;100.00;99288.57;109293;1252;74964;-58
2023/10/26 08:50:09;;;;;;;70.10;50.70;;;;;;;12.79;100.00;99293.70;109295;1253;66784;-58
2023/10/26 08:52:41;;;;;;;70.50;48.30;;;;;;;12.82;100.00;99293.60;109278;1253;72012;-58
2023/10/26 08:55:09;;;;;;;67.80;49.00;;;;;;;12.87;100.00;99289.16;109349;1252;61535;-58
2023/10/26 08:57:46;;;;;;;63.70;47.40;;;;;;;12.96;100.00;99288.27;109239;1253;62256;-58
2023/10/26 09:00:15;;;;;;;61.40;45.40;;;;;;;13.01;100.00;99282.27;109306;1253;74935;-57
2023/10/26 09:02:43;;;;;;;65.10;47.20;;;;;;;13.06;100.00;99278.23;109375;1253;65795;-58
2023/10/26 09:05:11;;;;;;;60.70;46.60;;;;;;;13.08;100.00;99277.61;109381;1252;73738;-58
2023/10/26 09:07:39;;;;;;;63.90;46.00;;;;;;;13.08;100.00;99277.71;109327;1252;61747;-58
2023/10/26 09:10:07;;;;;;;65.00;46.00;;;;;;;13.04;100.00;99276.16;109325;1253;58948;-58
2023/10/26 09:12:35;;;;;;;60.50;44.20;;;;;;;13.02;100.00;99274.53;109345;1252;76882;-58
2023/10/26 09:15:06;;;;;;;67.70;46.00;;;;;;;13.01;100.00;99275.70;109391;1252;68770;-57
2023/10/26 09:17:34;;;;;;;56.30;42.40;;;;;;;13.01;100.00;99272.67;109165;1254;72781;-59
2023/10/26 09:20:28;;;;;;;64.70;46.90;;;;;;;13.05;100.00;99267.21;109215;1255;62485;-58
2023/10/26 09:22:59;;;;;;;63.30;44.50;;;;;;;13.10;100.00;99252.16;109239;1254;61021;-59
2023/10/26 09:25:26;;;;;;;56.70;42.90;;;;;;;13.10;100.00;99240.36;109161;1254;75226;-58
2023/10/26 09:28:01;;;;;;;62.20;45.50;;;;;;;13.09;100.00;99233.84;109250;1254;66738;-58
2023/10/26 09:30:29;;;;;;;62.90;46.40;;;;;;;13.08;100.00;99235.38;109243;1253;74098;-58
2023/10/26 09:32:57;;;;;;;65.30;44.00;;;;;;;13.08;100.00;99235.29;109250;1253;60252;-58
2023/10/26 09:35:33;;;;;;;60.50;44.50;;;;;;;13.10;100.00;99237.84;109260;1253;60076;-58
2023/10/26 09:38:01;;;;;;;64.70;47.60;;;;;;;13.10;100.00;99239.45;109309;1253;75981;-57
2023/10/26 09:40:29;;;;;;;56.00;44.40;;;;;;;13.10;100.00;99241.25;109340;1253;69098;-58
2023/10/26 09:42:56;;;;;;;57.30;44.80;;;;;;;13.12;100.00;99238.69;109288;1253;72467;-59
2023/10/26 09:45:25;;;;;;;56.50;42.80;;;;;;;13.10;100.00;99240.50;109260;1256;61664;-58
2023/10/26 09:47:53;;;;;;;54.20;43.80;;;;;;;13.10;100.00;99248.30;109152;1253;59855;-59
2023/10/26 09:50:21;;;;;;;52.20;41.40;;;;;;;13.13;100.00;99257.84;109282;1253;73368;-59
2023/10/26 09:52:48;;;;;;;53.90;44.20;;;;;;;13.15;100.00;99256.23;109298;1253;67890;-61
2023/10/26 09:55:16;;;;;;;56.20;45.20;;;;;;;13.20;100.00;99260.59;109326;1252;71217;-62
2023/10/26 09:57:48;;;;;;;60.50;44.30;;;;;;;13.27;100.00;99260.48;109355;1252;61847;-62
2023/10/26 10:00:17;;;;;;;54.00;43.00;;;;;;;13.32;100.00;99252.91;109260;1253;60273;-64
2023/10/26 10:02:45;;;;;;;57.50;42.80;;;;;;;13.33;100.00;99244.08;109412;1253;76571;-64
2023/10/26 10:05:35;;;;;;;61.60;45.50;;;;;;;13.33;100.00;99240.43;109096;1252;66169;-63
2023/10/26 10:08:03;;;;;;;84.00;53.80;;;;;;;13.36;100.00;99241.38;109372;1252;72011;-64
2023/10/26 10:10:31;;;;;;;110.50;60.00;;;;;;;13.38;100.00;99242.27;109346;1252;63915;-64
2023/10/26 10:12:59;;;;;;;119.80;61.50;;;;;;;13.39;100.00;99246.67;109234;1253;59753;-65
2023/10/26 10:15:41;;;;;;;72.10;47.20;;;;;;;13.40;100.00;99255.48;109397;1252;74813;-65
2023/10/26 10:18:10;;;;;;;64.60;44.40;;;;;;;13.46;100.00;99262.84;109227;1253;66975;-65
2023/10/26 10:20:40;;;;;;;63.80;44.40;;;;;;;13.50;100.00;99269.14;109323;1252;73645;-64
2023/10/26 10:23:08;;;;;;;63.00;45.50;;;;;;;13.48;100.00;99269.97;109355;1252;61473;-65
2023/10/26 10:25:58;;;;;;;62.80;46.00;;;;;;;13.46;100.00;99269.66;109390;1253;58894;-64
2023/10/26 10:28:48;;;;;;;75.00;48.60;;;;;;;13.47;100.00;99267.86;109331;1253;76134;-64
2023/10/26 10:31:22;;;;;;;70.20;45.70;;;;;;;13.46;100.00;99260.23;109398;1252;65855;-64
2023/10/26 10:34:00;;;;;;;68.20;44.50;;;;;;;13.45;100.00;99252.11;109200;1253;71422;-63
2023/10/26 10:36:28;;;;;;;72.90;45.80;;;;;;;13.45;100.00;99249.09;109233;1253;63512;-63
2023/10/26 10:39:24;;;;;;;74.10;46.80;;;;;;;13.44;100.00;99246.00;109334;1253;61055;-63
2023/10/26 10:41:52;;;;;;;74.80;46.80;;;;;;;13.45;100.00;99251.42;109362;1253;74904;-63
2023/10/26 10:44:20;;;;;;;68.90;44.30;;;;;;;13.48;100.00;99251.17;109153;1253;66723;-63
2023/10/26 10:46:47;;;;;;;72.30;47.10;;;;;;;13.51;100.00;99250.68;109148;1253;72499;-63
2023/10/26 10:49:16;;;;;;;74.30;46.60;;;;;;;13.56;100.00;99247.74;109329;1252;64757;-62
2023/10/26 10:51:44;;;;;;;75.20;44.60;;;;;;;13.62;100.00;99242.77;109346;1253;61025;-63
2023/10/26 10:54:18;;;;;;;79.40;50.10;;;;;;;13.67;100.00;99242.41;109243;1253;74777;-62
2023/10/26 10:57:06;;;;;;;81.90;51.10;;;;;;;13.73;100.00;99243.53;109403;1253;66628;-62
2023/10/26 10:59:34;;;;;;;78.00;48.90;;;;;;;13.77;100.00;99241.62;109272;1253;73589;-62
2023/10/26 11:02:08;;;;;;;68.70;48.10;;;;;;;13.83;100.00;99240.77;109273;1253;60396;-62
2023/10/26 11:04:55;;;;;;;74.60;46.40;;;;;;;13.86;100.00;99244.77;109373;1253;60385;-62
2023/10/26 11:07:35;;;;;;;76.70;51.50;;;;;;;13.88;100.00;99240.30;109370;1253;75051;-62
2023/10/26 11:10:04;;;;;;;75.50;52.90;;;;;;;13.90;100.00;99247.08;109277;1253;69285;-62
2023/10/26 11:12:32;;;;;;;69.00;48.10;;;;;;;13.93;100.00;99240.50;109281;1253;71734;-62